This is the latest recevied weather packets stored in our database for station/object OE6ATD-13. If no packets are shown the sender has not sent any weather packets the latest 10 day(s).
| Time | Temp. | Humidity | Pressure | Rain* | Wind** | Luminosity | Snow |
|---|---|---|---|---|---|---|---|
| 1778315124 | 21.11° C | 48% | 1017 hPa | 0 mm | - | 691 W/m² | - |
| 1778314520 | 21.11° C | 50% | 1017.1 hPa | 0 mm | - | 668 W/m² | - |
| 1778313916 | 20.56° C | 52% | 1017.1 hPa | 0 mm | - | 631 W/m² | - |
| 1778313327 | 20.56° C | 53% | 1017.2 hPa | 0 mm | - | 617 W/m² | - |
| 1778312723 | 20° C | 54% | 1017.3 hPa | 0 mm | - | 583 W/m² | - |
| 1778312119 | 20° C | 57% | 1017.4 hPa | 0 mm | - | 561 W/m² | - |
| 1778311530 | 19.44° C | 56% | 1017.4 hPa | 0 mm | - | 536 W/m² | - |
| 1778310925 | 19.44° C | 58% | 1017.4 hPa | 0 mm | - | 505 W/m² | - |
| 1778310321 | 18.89° C | 61% | 1017.3 hPa | 0 mm | - | 466 W/m² | - |
| 1778309717 | 18.33° C | 60% | 1017.3 hPa | 0 mm | - | 443 W/m² | - |
| 1778309128 | 18.33° C | 61% | 1017.2 hPa | 0 mm | - | 415 W/m² | - |
| 1778308523 | 17.78° C | 61% | 1017.2 hPa | 0 mm | - | 388 W/m² | - |
| 1778307920 | 17.78° C | 62% | 1017.2 hPa | 0 mm | - | 360 W/m² | - |
| 1778307315 | 17.22° C | 64% | 1017.1 hPa | 0 mm | - | 326 W/m² | - |
| 1778306726 | 16.67° C | 70% | 1017.1 hPa | 0 mm | - | 282 W/m² | - |
| 1778306121 | 16.11° C | 70% | 1017.1 hPa | 0 mm | - | 260 W/m² | - |
| 1778305518 | 16.11° C | 70% | 1017.1 hPa | 0 mm | - | 229 W/m² | - |
| 1778304928 | 16.11° C | 70% | 1016.9 hPa | 0 mm | - | 201 W/m² | - |
| 1778304323 | 16.11° C | 73% | 1016.8 hPa | 0 mm | - | 174 W/m² | - |
| 1778303719 | 15° C | 77% | 1016.9 hPa | 0 mm | - | 146 W/m² | - |
| 1778303130 | 13.89° C | 82% | 1016.6 hPa | 0 mm | - | 112 W/m² | - |
| 1778302526 | 12.22° C | 88% | 1016.6 hPa | 0 mm | - | 88 W/m² | - |
| 1778301921 | 11.11° C | 92% | 1016.7 hPa | 0 mm | - | 49 W/m² | - |
| 1778301317 | 10° C | 92% | 1016.6 hPa | 0 mm | - | 31 W/m² | - |
| 1778300728 | 10° C | 92% | 1016.6 hPa | 0 mm | - | 21 W/m² | - |
* Rain latest hour (hover to see other rain measurements)
** Current wind speed in m/s (hover to see current wind gust speed)